createdAt,value
2019-03-28T00:01:09.697Z,81.50
2019-03-28T00:03:39.094Z,81.50
2019-03-28T00:06:08.410Z,81.80
2019-03-28T00:08:37.714Z,82.00
2019-03-28T00:11:07.091Z,82.00
2019-03-28T00:13:36.423Z,82.20
2019-03-28T00:16:05.846Z,82.30
2019-03-28T00:18:35.154Z,82.20
2019-03-28T00:21:04.531Z,82.30
2019-03-28T00:23:37.964Z,82.10
2019-03-28T00:26:07.263Z,82.30
2019-03-28T00:28:36.980Z,82.00
2019-03-28T00:31:06.455Z,82.00
2019-03-28T00:33:35.752Z,81.80
2019-03-28T00:36:05.126Z,81.80
2019-03-28T00:38:34.418Z,82.00
2019-03-28T00:41:03.806Z,82.00
2019-03-28T00:43:33.105Z,82.40
2019-03-28T00:46:02.427Z,82.40
2019-03-28T00:48:32.786Z,82.50
2019-03-28T00:51:02.149Z,82.50
2019-03-28T00:53:31.468Z,82.50
2019-03-28T00:56:00.783Z,82.50
2019-03-28T00:58:30.087Z,82.50
2019-03-28T01:00:59.397Z,82.60
2019-03-28T01:03:28.682Z,82.50
2019-03-28T01:05:57.987Z,82.80
2019-03-28T01:08:27.287Z,82.80
2019-03-28T01:10:56.599Z,83.00
2019-03-28T01:13:25.896Z,82.80
2019-03-28T01:15:55.203Z,82.40
2019-03-28T01:18:24.537Z,82.50
2019-03-28T01:21:18.514Z,82.60
2019-03-28T01:34:47.794Z,83.50
2019-03-28T01:37:22.901Z,83.50
2019-03-28T01:39:52.186Z,83.80
2019-03-28T01:42:21.539Z,83.80
2019-03-28T01:44:50.956Z,83.50
2019-03-28T01:50:43.582Z,83.30
2019-03-28T01:53:12.926Z,83.40
2019-03-28T01:55:42.239Z,83.50
2019-03-28T01:58:11.544Z,83.50
2019-03-28T02:00:40.859Z,83.20
2019-03-28T02:03:10.170Z,83.10
2019-03-28T02:05:39.481Z,83.20
2019-03-28T02:08:08.874Z,83.50
2019-03-28T02:10:38.191Z,83.30
2019-03-28T02:13:07.503Z,83.60
2019-03-28T02:15:36.786Z,83.40
2019-03-28T02:21:54.284Z,83.20
2019-03-28T02:24:23.586Z,83.60
2019-03-28T02:26:52.986Z,83.70
2019-03-28T02:29:22.282Z,83.70
2019-03-28T02:31:51.584Z,83.60
2019-03-28T02:38:06.179Z,83.30
2019-03-28T02:40:35.481Z,83.90
2019-03-28T02:43:04.811Z,83.90
2019-03-28T02:45:34.108Z,84.20
2019-03-28T03:01:30.080Z,84.50
2019-03-28T03:03:57.587Z,84.60
2019-03-28T03:10:27.364Z,84.30
2019-03-28T03:12:56.672Z,84.40
2019-03-28T03:15:25.978Z,84.20
2019-03-28T03:17:55.298Z,84.10
2019-03-28T03:20:24.602Z,84.10
2019-03-28T03:22:55.433Z,84.20
2019-03-28T03:25:24.725Z,84.10
2019-03-28T03:27:58.301Z,84.00
2019-03-28T03:30:25.116Z,83.90
2019-03-28T03:32:54.420Z,83.50
2019-03-28T03:35:23.723Z,83.10
2019-03-28T03:37:53.039Z,83.30
2019-03-28T03:40:22.422Z,83.50
2019-03-28T03:42:51.727Z,83.40
2019-03-28T03:45:22.247Z,83.10
2019-03-28T03:47:51.630Z,83.20
2019-03-28T03:50:28.515Z,83.30
2019-03-28T03:52:57.913Z,83.50
2019-03-28T03:55:27.187Z,83.50
2019-03-28T03:58:13.664Z,83.50
2019-03-28T04:00:32.927Z,83.40
2019-03-28T04:03:03.218Z,83.30
2019-03-28T04:05:32.899Z,83.30
2019-03-28T04:08:02.221Z,83.60
2019-03-28T04:10:31.536Z,83.90
2019-03-28T04:13:00.913Z,83.80
2019-03-28T04:15:30.222Z,83.60
2019-03-28T04:17:59.538Z,83.70
2019-03-28T04:20:28.964Z,83.50
2019-03-28T04:22:58.271Z,83.50
2019-03-28T04:25:27.667Z,83.40
2019-03-28T04:27:57.039Z,83.50
2019-03-28T04:30:26.345Z,83.70
2019-03-28T04:32:55.658Z,84.00
2019-03-28T04:35:24.959Z,84.20
2019-03-28T04:37:54.276Z,84.20
2019-03-28T04:40:23.602Z,83.70
2019-03-28T04:42:52.967Z,83.70
2019-03-28T04:45:22.259Z,83.70
2019-03-28T04:47:51.570Z,84.20
2019-03-28T04:50:20.879Z,84.30
2019-03-28T04:52:52.771Z,84.00
2019-03-28T04:55:21.418Z,83.80
2019-03-28T04:57:51.007Z,83.60
2019-03-28T05:00:20.402Z,83.80
2019-03-28T05:02:49.719Z,83.80
2019-03-28T05:05:19.025Z,83.80
2019-03-28T05:07:48.395Z,83.80
2019-03-28T05:10:17.710Z,83.70
2019-03-28T05:12:47.219Z,83.80
2019-03-28T05:15:16.831Z,83.70
2019-03-28T05:17:46.282Z,83.80
2019-03-28T05:20:15.846Z,83.70
2019-03-28T05:22:45.157Z,83.70
2019-03-28T05:25:14.459Z,83.90
2019-03-28T05:27:43.771Z,84.00
2019-03-28T05:30:13.403Z,83.80
2019-03-28T05:32:42.788Z,83.90
2019-03-28T05:35:12.274Z,83.90
2019-03-28T05:37:41.690Z,83.90
2019-03-28T05:40:11.463Z,83.80
2019-03-28T05:43:00.171Z,84.00
2019-03-28T05:45:29.583Z,84.00
2019-03-28T05:48:00.358Z,84.20
2019-03-28T05:50:29.931Z,84.80
2019-03-28T05:52:59.250Z,84.80
2019-03-28T05:55:28.534Z,85.00
2019-03-28T05:57:57.921Z,84.60
2019-03-28T06:00:27.220Z,84.40
2019-03-28T06:02:56.521Z,84.50
2019-03-28T06:05:26.370Z,84.40
2019-03-28T06:07:55.788Z,84.50
2019-03-28T06:10:25.093Z,84.30
2019-03-28T06:12:54.410Z,84.20
2019-03-28T06:15:23.721Z,84.10
2019-03-28T06:17:53.041Z,84.00
2019-03-28T06:20:22.329Z,84.20
2019-03-28T06:22:51.641Z,84.50
2019-03-28T06:25:21.081Z,84.80
2019-03-28T06:27:50.420Z,84.60
2019-03-28T06:30:19.958Z,84.50
2019-03-28T06:32:49.343Z,84.50
2019-03-28T06:35:21.722Z,84.60
2019-03-28T06:37:51.370Z,84.40
2019-03-28T06:40:20.621Z,84.40
2019-03-28T06:42:49.958Z,84.60
2019-03-28T06:45:19.256Z,84.50
2019-03-28T06:47:48.566Z,84.20
2019-03-28T06:50:17.851Z,84.30
2019-03-28T06:52:47.162Z,84.30
2019-03-28T06:55:16.454Z,84.30
2019-03-28T06:57:45.784Z,84.50
2019-03-28T07:00:15.519Z,84.50
2019-03-28T07:02:44.827Z,84.20
2019-03-28T07:05:14.299Z,84.10
2019-03-28T07:07:43.598Z,84.00
2019-03-28T07:10:33.773Z,83.90
2019-03-28T07:13:03.083Z,84.00
2019-03-28T07:15:36.595Z,83.90
2019-03-28T07:18:04.671Z,84.10
2019-03-28T07:20:33.995Z,84.10
2019-03-28T07:23:03.286Z,84.00
2019-03-28T07:25:32.578Z,84.10
2019-03-28T07:28:06.145Z,84.00
2019-03-28T07:30:33.892Z,83.80
2019-03-28T07:33:03.209Z,83.90
2019-03-28T07:35:32.502Z,84.10
2019-03-28T07:38:01.815Z,85.20
2019-03-28T07:40:33.452Z,85.30
2019-03-28T07:43:02.118Z,84.90
2019-03-28T07:45:34.280Z,84.50
2019-03-28T07:48:02.503Z,84.30
2019-03-28T07:50:33.442Z,84.30
2019-03-28T07:53:02.789Z,84.20
2019-03-28T07:55:32.082Z,84.20
2019-03-28T07:58:01.383Z,84.30
2019-03-28T08:00:30.764Z,85.10
2019-03-28T08:03:00.066Z,85.60
2019-03-28T08:05:29.410Z,85.00
2019-03-28T08:07:58.745Z,84.70
2019-03-28T08:10:28.160Z,84.70
2019-03-28T08:12:57.469Z,84.70
2019-03-28T08:15:26.794Z,84.40
2019-03-28T08:17:56.148Z,84.50
2019-03-28T08:20:25.435Z,84.10
2019-03-28T08:22:54.746Z,84.20
2019-03-28T08:25:24.051Z,83.90
2019-03-28T08:27:53.359Z,83.30
2019-03-28T08:30:25.930Z,83.30
2019-03-28T08:32:55.262Z,82.50
2019-03-28T08:35:24.639Z,82.30
2019-03-28T08:37:54.522Z,82.20
2019-03-28T08:40:39.863Z,82.20
2019-03-28T08:43:09.455Z,81.50
2019-03-28T08:45:38.830Z,81.60
2019-03-28T08:48:08.239Z,81.60
2019-03-28T08:50:37.532Z,81.90
2019-03-28T08:53:06.987Z,82.10
2019-03-28T08:55:36.298Z,82.10
2019-03-28T08:58:05.687Z,81.70
2019-03-28T09:00:51.164Z,80.80
2019-03-28T09:03:06.327Z,80.40
2019-03-28T09:05:35.630Z,80.30
2019-03-28T09:08:04.937Z,79.50
2019-03-28T09:10:34.237Z,78.70
2019-03-28T09:13:03.556Z,78.60
2019-03-28T09:15:43.153Z,77.70
2019-03-28T09:18:04.899Z,77.80
2019-03-28T09:20:34.191Z,77.60
2019-03-28T09:23:03.543Z,76.90
2019-03-28T09:25:32.882Z,77.10
2019-03-28T09:28:02.283Z,76.70
2019-03-28T09:30:48.827Z,75.70
2019-03-28T09:33:13.214Z,75.50
2019-03-28T09:35:42.574Z,75.30
2019-03-28T09:38:11.991Z,75.20
2019-03-28T09:40:41.298Z,75.20
2019-03-28T09:43:10.602Z,75.00
2019-03-28T09:45:39.903Z,74.10
2019-03-28T09:48:11.574Z,73.70
2019-03-28T09:50:40.211Z,73.80
2019-03-28T09:53:09.526Z,72.50
2019-03-28T09:55:39.139Z,72.10
2019-03-28T09:58:08.450Z,71.40
2019-03-28T10:00:37.733Z,71.30
2019-03-28T10:03:07.055Z,71.80
2019-03-28T10:05:37.974Z,70.90
2019-03-28T10:08:07.543Z,70.50
2019-03-28T10:10:36.912Z,69.80
2019-03-28T10:13:06.223Z,69.30
2019-03-28T10:15:37.049Z,69.50
2019-03-28T10:18:06.630Z,68.60
2019-03-28T10:20:35.910Z,68.50
2019-03-28T10:23:05.229Z,68.70
2019-03-28T10:25:34.634Z,65.60
2019-03-28T10:28:04.112Z,62.20
2019-03-28T10:30:38.718Z,60.10
2019-03-28T10:33:08.962Z,58.80
2019-03-28T10:35:38.347Z,58.00
2019-03-28T10:38:07.720Z,57.90
2019-03-28T10:40:37.039Z,56.60
2019-03-28T10:43:06.406Z,57.80
2019-03-28T10:45:35.887Z,57.60
2019-03-28T10:48:05.360Z,57.40
2019-03-28T10:50:41.622Z,55.30
2019-03-28T10:53:05.668Z,55.10
2019-03-28T10:55:34.965Z,54.10
2019-03-28T10:58:17.758Z,57.60
2019-03-28T11:00:35.273Z,60.80
2019-03-28T11:03:04.888Z,61.50
2019-03-28T11:05:34.418Z,58.90
2019-03-28T11:08:03.719Z,57.60
2019-03-28T11:10:33.041Z,55.90
2019-03-28T11:13:02.348Z,55.90
2019-03-28T11:15:31.836Z,59.60
2019-03-28T11:18:01.187Z,61.60
2019-03-28T11:20:30.499Z,62.20
2019-03-28T11:23:02.315Z,62.60
2019-03-28T11:25:31.723Z,63.10
2019-03-28T11:28:02.013Z,63.50
2019-03-28T11:30:31.317Z,64.30
2019-03-28T11:33:00.698Z,64.40
2019-03-28T11:35:30.002Z,65.20
2019-03-28T11:37:59.314Z,64.50
2019-03-28T11:40:28.651Z,64.50
2019-03-28T11:42:57.972Z,65.10
2019-03-28T11:45:27.354Z,64.60
2019-03-28T11:47:56.658Z,64.30
2019-03-28T11:50:26.017Z,64.10
2019-03-28T11:52:55.320Z,64.10
2019-03-28T11:55:24.658Z,64.00
2019-03-28T11:57:56.403Z,63.70
2019-03-28T12:00:26.051Z,63.30
2019-03-28T12:02:55.369Z,62.50
2019-03-28T12:05:24.666Z,63.30
2019-03-28T12:07:53.952Z,62.90
2019-03-28T12:10:23.292Z,62.60
2019-03-28T12:12:52.639Z,63.10
2019-03-28T12:15:22.036Z,64.00
2019-03-28T12:17:51.326Z,64.70
2019-03-28T12:20:20.639Z,64.40
2019-03-28T12:22:49.942Z,65.40
2019-03-28T12:25:19.260Z,65.70
2019-03-28T12:27:48.689Z,65.80
2019-03-28T12:30:19.903Z,66.70
2019-03-28T12:32:49.204Z,66.70
2019-03-28T12:35:18.517Z,66.70
2019-03-28T12:37:47.836Z,64.60
2019-03-28T12:40:17.678Z,64.50
2019-03-28T12:42:46.978Z,64.20
2019-03-28T12:45:16.551Z,64.30
2019-03-28T12:47:45.851Z,64.80
2019-03-28T12:50:16.808Z,65.70
2019-03-28T12:52:46.114Z,65.80
2019-03-28T12:55:16.955Z,64.10
2019-03-28T12:57:48.419Z,63.20
2019-03-28T13:00:20.349Z,63.50
2019-03-28T13:02:49.655Z,64.90
2019-03-28T13:05:19.007Z,65.90
2019-03-28T13:07:48.315Z,66.00
2019-03-28T13:10:17.986Z,65.20
2019-03-28T13:12:47.287Z,65.30
2019-03-28T13:15:16.685Z,65.50
2019-03-28T13:17:45.992Z,66.20
2019-03-28T13:20:15.474Z,67.70
2019-03-28T13:22:44.935Z,67.50
2019-03-28T13:25:14.520Z,66.50
2019-03-28T13:27:43.892Z,65.00
2019-03-28T13:30:14.270Z,63.90
2019-03-28T13:32:44.678Z,64.10
2019-03-28T13:35:14.279Z,64.90
2019-03-28T13:37:44.539Z,65.70
2019-03-28T13:40:14.092Z,65.70
2019-03-28T13:42:43.793Z,65.90
2019-03-28T13:45:15.028Z,66.70
2019-03-28T13:47:44.316Z,65.80
2019-03-28T13:50:15.426Z,66.00
2019-03-28T13:52:44.801Z,67.90
2019-03-28T13:55:14.309Z,67.60
2019-03-28T13:57:44.567Z,67.70
2019-03-28T14:00:14.434Z,68.70
2019-03-28T14:02:55.525Z,68.70
2019-03-28T14:05:15.004Z,68.10
2019-03-28T14:07:44.392Z,68.50
2019-03-28T14:10:14.334Z,68.90
2019-03-28T14:12:43.700Z,68.30
2019-03-28T14:15:13.119Z,69.10
2019-03-28T14:17:42.427Z,69.30
2019-03-28T14:20:12.449Z,68.90
2019-03-28T14:22:41.808Z,69.70
2019-03-28T14:25:11.212Z,70.10
2019-03-28T14:27:40.498Z,69.90
2019-03-28T14:30:11.504Z,69.70
2019-03-28T14:32:52.529Z,69.30
2019-03-28T14:35:12.147Z,68.50
2019-03-28T14:37:41.531Z,68.30
2019-03-28T14:40:11.866Z,68.60
2019-03-28T14:42:41.269Z,68.30
2019-03-28T14:45:11.739Z,68.70
2019-03-28T14:47:41.099Z,68.40
2019-03-28T14:50:11.551Z,69.00
2019-03-28T14:52:40.850Z,68.60
2019-03-28T14:55:10.727Z,69.30
2019-03-28T14:57:40.869Z,69.50
2019-03-28T15:00:48.136Z,70.20
2019-03-28T15:03:26.315Z,70.80
2019-03-28T15:05:49.195Z,71.30
2019-03-28T15:08:18.497Z,71.10
2019-03-28T15:10:47.807Z,70.50
2019-03-28T15:13:17.250Z,70.20
2019-03-28T15:15:46.579Z,70.20
2019-03-28T15:18:15.875Z,70.00
2019-03-28T15:20:45.194Z,69.50
2019-03-28T15:23:14.675Z,69.30
2019-03-28T15:26:03.468Z,69.70
2019-03-28T15:28:32.860Z,69.30
2019-03-28T15:31:02.154Z,68.80
2019-03-28T15:33:39.201Z,69.00
2019-03-28T15:36:02.499Z,68.40
2019-03-28T15:38:31.815Z,68.70
2019-03-28T15:41:01.327Z,68.70
2019-03-28T15:43:30.679Z,68.40
2019-03-28T15:46:01.083Z,68.30
2019-03-28T15:48:32.024Z,68.50
2019-03-28T15:51:01.624Z,68.40
2019-03-28T15:53:31.179Z,68.50
2019-03-28T15:56:00.523Z,68.30
2019-03-28T15:58:29.821Z,68.30
2019-03-28T16:00:59.139Z,69.00
2019-03-28T16:03:28.506Z,69.50
2019-03-28T16:05:58.779Z,70.20
2019-03-28T16:08:28.298Z,70.10
2019-03-28T16:10:57.642Z,69.40
2019-03-28T16:13:27.107Z,69.50
2019-03-28T16:15:56.431Z,70.40
2019-03-28T16:18:25.802Z,70.20
2019-03-28T16:20:55.174Z,69.90
2019-03-28T16:23:24.481Z,69.90
2019-03-28T16:25:53.963Z,69.30
2019-03-28T16:28:23.274Z,69.50
2019-03-28T16:30:52.581Z,70.50
2019-03-28T16:33:22.160Z,70.50
2019-03-28T16:35:51.467Z,70.40
2019-03-28T16:38:20.781Z,71.20
2019-03-28T16:40:50.258Z,71.00
2019-03-28T16:43:19.552Z,70.80
2019-03-28T16:45:49.056Z,71.10
2019-03-28T16:48:18.363Z,71.60
2019-03-28T16:50:47.683Z,70.90
2019-03-28T16:53:17.900Z,71.40
2019-03-28T16:55:47.206Z,71.90
2019-03-28T16:58:16.546Z,71.20
2019-03-28T17:00:45.889Z,71.60
2019-03-28T17:03:15.270Z,70.90
2019-03-28T17:05:47.150Z,70.40
2019-03-28T17:08:17.028Z,70.60
2019-03-28T17:10:49.376Z,70.80
2019-03-28T17:13:18.844Z,71.20
2019-03-28T17:15:48.168Z,71.60
2019-03-28T17:18:18.784Z,71.60
2019-03-28T17:20:48.475Z,71.90
2019-03-28T17:23:17.904Z,72.30
2019-03-28T17:25:47.287Z,72.50
2019-03-28T17:28:16.647Z,72.40
2019-03-28T17:30:47.143Z,71.90
2019-03-28T17:33:18.034Z,72.60
2019-03-28T17:35:47.818Z,72.30
2019-03-28T17:38:17.203Z,72.00
2019-03-28T17:40:46.873Z,72.40
2019-03-28T17:43:16.565Z,72.50
2019-03-28T17:45:46.174Z,72.50
2019-03-28T17:48:15.513Z,72.90
2019-03-28T17:50:44.891Z,73.30
2019-03-28T17:53:14.209Z,73.50
2019-03-28T17:55:43.631Z,74.20
2019-03-28T17:58:13.134Z,74.20
2019-03-28T18:00:44.083Z,74.60
2019-03-28T18:03:13.679Z,74.10
2019-03-28T18:05:43.063Z,73.60
2019-03-28T18:08:12.374Z,73.70
2019-03-28T18:10:41.744Z,73.50
2019-03-28T18:13:11.110Z,73.10
2019-03-28T18:15:40.503Z,73.10
2019-03-28T18:18:11.823Z,72.80
2019-03-28T18:20:40.946Z,73.00
2019-03-28T18:23:10.267Z,73.40
2019-03-28T18:25:39.652Z,74.00
2019-03-28T18:28:09.616Z,74.20
2019-03-28T18:30:40.370Z,74.00
2019-03-28T18:33:10.938Z,73.90
2019-03-28T18:35:40.647Z,73.70
2019-03-28T18:38:10.835Z,74.20
2019-03-28T18:40:41.437Z,75.60
2019-03-28T18:43:10.743Z,75.80
2019-03-28T18:45:40.041Z,75.20
2019-03-28T18:48:10.483Z,74.90
2019-03-28T18:50:41.582Z,74.60
2019-03-28T18:53:11.116Z,74.50
2019-03-28T18:55:40.422Z,74.40
2019-03-28T18:58:09.745Z,74.10
2019-03-28T19:00:39.119Z,74.20
2019-03-28T19:03:08.447Z,74.20
2019-03-28T19:05:37.754Z,74.30
2019-03-28T19:08:07.066Z,74.40
2019-03-28T19:10:36.355Z,74.70
2019-03-28T19:13:05.747Z,74.70
2019-03-28T19:15:35.071Z,74.40
2019-03-28T19:18:04.383Z,74.90
2019-03-28T19:20:34.035Z,75.00
2019-03-28T19:23:07.215Z,75.10
2019-03-28T19:25:35.819Z,75.30
2019-03-28T19:28:07.585Z,75.40
2019-03-28T19:30:36.656Z,75.50
2019-03-28T19:33:07.117Z,75.50
2019-03-28T19:35:38.094Z,75.50
2019-03-28T19:38:09.088Z,75.60
2019-03-28T19:40:38.558Z,75.70
2019-03-28T19:43:19.688Z,75.80
2019-03-28T19:45:39.102Z,76.00
2019-03-28T19:48:08.663Z,76.30
2019-03-28T19:50:37.992Z,76.30
2019-03-28T19:53:07.307Z,76.60
2019-03-28T19:55:39.698Z,76.70
2019-03-28T19:58:07.857Z,76.70
2019-03-28T20:00:38.313Z,77.00
2019-03-28T20:03:07.625Z,77.20
2019-03-28T20:05:47.577Z,77.50
2019-03-28T20:08:15.406Z,77.40
2019-03-28T20:10:40.654Z,77.40
2019-03-28T20:13:10.027Z,77.40
2019-03-28T20:15:39.407Z,77.50
2019-03-28T20:18:09.759Z,77.40
2019-03-28T20:20:39.210Z,77.60
2019-03-28T20:23:08.511Z,77.60
2019-03-28T20:25:37.835Z,77.70
2019-03-28T20:28:07.146Z,78.10
2019-03-28T20:30:36.446Z,78.10
2019-03-28T20:33:05.901Z,78.10
2019-03-28T20:35:35.289Z,78.40
2019-03-28T20:38:04.785Z,78.80
2019-03-28T20:40:34.071Z,78.80
2019-03-28T20:43:03.413Z,78.70
2019-03-28T20:45:32.717Z,78.50
2019-03-28T20:48:02.039Z,78.70
2019-03-28T20:50:31.880Z,78.70
2019-03-28T20:53:01.390Z,78.80
2019-03-28T20:55:30.709Z,79.30
2019-03-28T20:58:00.020Z,79.60
2019-03-28T21:00:38.878Z,79.50
2019-03-28T21:03:08.576Z,79.40
2019-03-28T21:05:38.019Z,79.50
2019-03-28T21:08:07.475Z,80.00
2019-03-28T21:10:37.055Z,80.00
2019-03-28T21:13:06.433Z,80.00
2019-03-28T21:15:35.977Z,79.60
2019-03-28T21:18:05.275Z,79.60
2019-03-28T21:20:36.177Z,79.80
2019-03-28T21:23:06.170Z,79.90
2019-03-28T21:25:35.496Z,80.00
2019-03-28T21:28:05.887Z,80.00
2019-03-28T21:30:46.572Z,80.10
2019-03-28T21:33:06.254Z,80.20
2019-03-28T21:35:35.600Z,80.30
2019-03-28T21:38:04.893Z,80.20
2019-03-28T21:40:35.355Z,80.60
2019-03-28T21:43:04.895Z,80.80
2019-03-28T21:45:34.454Z,80.80
2019-03-28T21:48:04.006Z,81.10
2019-03-28T21:50:34.285Z,81.30
2019-03-28T21:53:03.692Z,81.40
2019-03-28T21:55:33.021Z,81.60
2019-03-28T21:58:02.311Z,82.00
2019-03-28T22:00:31.627Z,82.40
2019-03-28T22:03:00.926Z,82.50
2019-03-28T22:05:30.862Z,82.40
2019-03-28T22:08:00.529Z,82.50
2019-03-28T22:10:29.830Z,82.10
2019-03-28T22:12:59.213Z,82.10
2019-03-28T22:15:28.519Z,81.90
2019-03-28T22:17:57.906Z,81.90
2019-03-28T22:20:27.266Z,82.20
2019-03-28T22:22:56.613Z,82.40
2019-03-28T22:25:25.930Z,82.60
2019-03-28T22:27:55.259Z,82.70
2019-03-28T22:30:24.547Z,82.80
2019-03-28T22:32:53.855Z,82.80
2019-03-28T22:35:23.198Z,82.90
2019-03-28T22:37:52.503Z,83.30
2019-03-28T22:40:21.799Z,83.90
2019-03-28T22:42:52.288Z,83.80
2019-03-28T22:45:21.584Z,83.60
2019-03-28T22:47:50.908Z,83.40
2019-03-28T22:50:20.285Z,83.30
2019-03-28T22:52:49.598Z,83.40
2019-03-28T22:55:18.883Z,83.40
2019-03-28T22:57:48.190Z,83.40
2019-03-28T23:00:19.436Z,83.30
2019-03-28T23:02:50.388Z,83.40
2019-03-28T23:05:19.856Z,83.60
2019-03-28T23:07:49.206Z,83.50
2019-03-28T23:10:21.018Z,83.60
2019-03-28T23:12:50.074Z,83.40
2019-03-28T23:15:21.918Z,83.30
2019-03-28T23:17:50.663Z,83.40
2019-03-28T23:20:19.964Z,83.60
2019-03-28T23:22:49.284Z,83.40
2019-03-28T23:25:18.576Z,83.30
2019-03-28T23:27:47.892Z,83.40
2019-03-28T23:30:17.259Z,83.50
2019-03-28T23:32:46.574Z,83.80
2019-03-28T23:35:15.883Z,83.80
2019-03-28T23:38:04.521Z,84.10
2019-03-28T23:40:33.785Z,83.90
2019-03-28T23:43:03.058Z,83.90
2019-03-28T23:45:32.313Z,84.00
2019-03-28T23:48:01.711Z,84.00
2019-03-28T23:50:33.026Z,83.90
2019-03-28T23:53:02.373Z,84.10
2019-03-28T23:55:31.636Z,84.10
2019-03-28T23:58:00.921Z,84.30
